createdAt,value
2022-12-09T00:00:54.084Z,7.61
2022-12-09T00:03:24.034Z,7.51
2022-12-09T00:05:51.278Z,7.45
2022-12-09T00:08:18.959Z,7.44
2022-12-09T00:10:46.448Z,7.56
2022-12-09T00:13:14.004Z,7.58
2022-12-09T00:15:44.747Z,7.62
2022-12-09T00:18:12.199Z,7.48
2022-12-09T00:20:40.032Z,7.51
2022-12-09T00:23:07.078Z,7.42
2022-12-09T00:25:34.324Z,7.43
2022-12-09T00:28:01.573Z,7.66
2022-12-09T00:30:28.889Z,7.76
2022-12-09T00:32:55.885Z,7.65
2022-12-09T00:35:23.464Z,7.61
2022-12-09T00:37:50.946Z,7.48
2022-12-09T00:40:18.814Z,7.09
2022-12-09T00:42:47.093Z,7.08
2022-12-09T00:45:14.151Z,7.44
2022-12-09T00:47:41.439Z,7.55
2022-12-09T00:50:09.690Z,7.69
2022-12-09T00:52:38.105Z,7.78
2022-12-09T00:55:05.593Z,7.82
2022-12-09T00:57:33.085Z,7.68
2022-12-09T01:00:00.881Z,7.86
2022-12-09T01:02:30.038Z,7.63
2022-12-09T01:04:57.410Z,7.56
2022-12-09T01:07:24.878Z,7.64
2022-12-09T01:09:52.558Z,7.66
2022-12-09T01:12:21.869Z,7.73
2022-12-09T01:14:49.646Z,7.53
2022-12-09T01:17:16.953Z,7.50
2022-12-09T01:19:46.143Z,7.43
2022-12-09T01:22:13.804Z,7.69
2022-12-09T01:24:41.113Z,7.18
2022-12-09T01:27:08.877Z,7.23
2022-12-09T01:29:37.225Z,7.42
2022-12-09T01:32:05.116Z,7.39
2022-12-09T01:34:32.619Z,7.47
2022-12-09T01:37:00.122Z,7.40
2022-12-09T01:39:27.537Z,7.31
2022-12-09T01:41:55.565Z,7.07
2022-12-09T01:44:27.296Z,6.74
2022-12-09T01:46:55.911Z,7.09
2022-12-09T01:49:27.655Z,7.17
2022-12-09T01:52:22.668Z,7.09
2022-12-09T01:54:50.709Z,6.99
2022-12-09T01:57:18.155Z,7.18
2022-12-09T01:59:46.130Z,6.79
2022-12-09T02:02:17.233Z,6.90
2022-12-09T02:04:48.836Z,6.77
2022-12-09T02:07:16.412Z,7.03
2022-12-09T02:09:44.455Z,7.34
2022-12-09T02:12:17.482Z,7.32
2022-12-09T02:14:50.738Z,6.68
2022-12-09T02:17:40.102Z,7.14
2022-12-09T02:20:13.488Z,7.10
2022-12-09T02:22:50.412Z,6.92
2022-12-09T02:25:25.973Z,6.90
2022-12-09T02:28:11.934Z,7.09
2022-12-09T02:30:50.956Z,7.29
2022-12-09T02:33:40.755Z,7.31
2022-12-09T02:36:15.188Z,7.36
2022-12-09T02:38:44.327Z,7.53
2022-12-09T02:41:20.753Z,7.70
2022-12-09T02:43:50.926Z,7.27
2022-12-09T02:46:20.096Z,7.24
2022-12-09T02:48:50.731Z,7.02
2022-12-09T02:51:20.263Z,7.21
2022-12-09T02:53:49.764Z,7.20
2022-12-09T02:56:18.329Z,6.77
2022-12-09T02:58:45.218Z,7.25
2022-12-09T03:01:23.106Z,7.13
2022-12-09T03:03:51.925Z,7.28
2022-12-09T03:06:20.611Z,7.31
2022-12-09T03:08:59.546Z,7.22
2022-12-09T03:11:27.198Z,7.22
2022-12-09T03:14:00.332Z,7.24
2022-12-09T03:16:27.492Z,7.23
2022-12-09T03:18:57.403Z,7.35
2022-12-09T03:21:39.145Z,7.34
2022-12-09T03:24:08.433Z,7.12
2022-12-09T03:26:39.136Z,7.06
2022-12-09T03:29:09.820Z,6.86
2022-12-09T03:31:38.327Z,6.94
2022-12-09T03:34:07.872Z,6.89
2022-12-09T03:36:38.706Z,7.22
2022-12-09T03:39:11.800Z,6.91
2022-12-09T03:41:42.708Z,7.05
2022-12-09T03:44:14.668Z,7.34
2022-12-09T03:46:41.826Z,7.42
2022-12-09T03:49:09.388Z,7.04
2022-12-09T03:51:49.915Z,6.31
2022-12-09T03:54:26.349Z,6.67
2022-12-09T03:56:57.748Z,7.29
2022-12-09T03:59:26.241Z,7.57
2022-12-09T04:01:58.206Z,7.40
2022-12-09T04:04:26.007Z,6.84
2022-12-09T04:06:54.430Z,6.71
2022-12-09T04:09:22.306Z,7.09
2022-12-09T04:11:51.721Z,6.30
2022-12-09T04:14:20.593Z,7.34
2022-12-09T04:16:48.253Z,7.62
2022-12-09T04:19:16.183Z,7.50
2022-12-09T04:21:45.331Z,7.92
2022-12-09T04:24:12.494Z,7.71
2022-12-09T04:26:40.872Z,7.75
2022-12-09T04:29:08.280Z,7.68
2022-12-09T04:31:35.736Z,7.98
2022-12-09T04:34:08.887Z,7.84
2022-12-09T04:36:36.679Z,7.79
2022-12-09T04:39:04.747Z,7.74
2022-12-09T04:41:32.126Z,7.25
2022-12-09T04:43:59.361Z,7.60
2022-12-09T04:46:45.085Z,7.97
2022-12-09T04:49:12.480Z,7.97
2022-12-09T04:51:40.328Z,7.91
2022-12-09T04:54:19.668Z,7.69
2022-12-09T04:56:47.966Z,7.72
2022-12-09T04:59:16.831Z,7.69
2022-12-09T05:01:44.391Z,7.69
2022-12-09T05:04:13.962Z,7.74
2022-12-09T05:06:41.576Z,7.92
2022-12-09T05:09:11.724Z,7.73
2022-12-09T05:11:39.292Z,7.66
2022-12-09T05:14:06.208Z,7.59
2022-12-09T05:16:33.803Z,7.76
2022-12-09T05:19:00.645Z,7.87
2022-12-09T05:21:27.517Z,7.61
2022-12-09T05:23:54.729Z,7.82
2022-12-09T05:26:22.124Z,7.69
2022-12-09T05:28:49.474Z,7.25
2022-12-09T05:31:18.057Z,7.39
2022-12-09T05:33:45.841Z,7.78
2022-12-09T05:36:13.892Z,7.82
2022-12-09T05:38:41.045Z,7.42
2022-12-09T05:41:08.232Z,7.38
2022-12-09T05:43:35.264Z,7.10
2022-12-09T05:46:02.109Z,7.59
2022-12-09T05:48:29.643Z,7.35
2022-12-09T05:51:04.763Z,7.50
2022-12-09T05:53:31.609Z,7.60
2022-12-09T05:55:58.429Z,7.30
2022-12-09T05:58:25.328Z,7.64
2022-12-09T06:00:52.697Z,7.73
2022-12-09T06:03:19.592Z,7.80
2022-12-09T06:05:46.425Z,7.47
2022-12-09T06:08:13.566Z,7.67
2022-12-09T06:10:41.319Z,7.70
2022-12-09T06:13:08.516Z,7.95
2022-12-09T06:15:35.359Z,7.92
2022-12-09T06:18:02.953Z,7.86
2022-12-09T06:20:29.874Z,7.96
2022-12-09T06:22:57.020Z,7.74
2022-12-09T06:25:23.965Z,7.85
2022-12-09T06:27:52.537Z,7.70
2022-12-09T06:30:19.816Z,7.54
2022-12-09T06:32:46.766Z,7.73
2022-12-09T06:35:13.989Z,8.05
2022-12-09T06:37:41.605Z,7.95
2022-12-09T06:40:08.716Z,8.00
2022-12-09T06:42:35.724Z,8.06
2022-12-09T06:45:02.447Z,8.06
2022-12-09T06:47:29.182Z,7.36
2022-12-09T06:50:04.364Z,7.56
2022-12-09T06:52:33.600Z,7.42
2022-12-09T06:55:00.618Z,7.50
2022-12-09T06:57:27.535Z,7.00
2022-12-09T06:59:54.475Z,6.89
2022-12-09T07:02:21.750Z,7.52
2022-12-09T07:04:53.143Z,7.23
2022-12-09T07:07:20.215Z,7.28
2022-12-09T07:09:47.194Z,7.36
2022-12-09T07:12:13.825Z,7.09
2022-12-09T07:14:40.549Z,7.22
2022-12-09T07:17:07.713Z,7.69
2022-12-09T07:19:34.582Z,7.88
2022-12-09T07:22:01.273Z,7.57
2022-12-09T07:24:27.914Z,7.55
2022-12-09T07:26:55.121Z,7.53
2022-12-09T07:29:21.772Z,7.64
2022-12-09T07:31:48.856Z,7.76
2022-12-09T07:34:16.062Z,7.45
2022-12-09T07:36:43.279Z,7.83
2022-12-09T07:39:14.738Z,7.87
2022-12-09T07:41:42.089Z,8.01
2022-12-09T07:44:08.789Z,7.40
2022-12-09T07:46:35.854Z,7.98
2022-12-09T07:49:03.676Z,8.22
2022-12-09T07:51:30.872Z,7.75
2022-12-09T07:53:58.102Z,7.81
2022-12-09T07:56:25.549Z,8.06
2022-12-09T07:58:53.501Z,8.03
2022-12-09T08:01:22.478Z,8.02
2022-12-09T08:03:49.640Z,7.92
2022-12-09T08:06:18.200Z,7.70
2022-12-09T08:08:45.373Z,8.00
2022-12-09T08:11:19.899Z,8.08
2022-12-09T08:13:46.886Z,8.01
2022-12-09T08:16:15.000Z,8.14
2022-12-09T08:18:42.957Z,8.04
2022-12-09T08:21:11.812Z,8.22
2022-12-09T08:23:38.936Z,8.13
2022-12-09T08:26:06.170Z,8.29
2022-12-09T08:28:33.190Z,7.84
2022-12-09T08:31:05.708Z,8.00
2022-12-09T08:33:34.320Z,8.19
2022-12-09T08:36:04.734Z,8.24
2022-12-09T08:38:32.035Z,8.28
2022-12-09T08:40:59.064Z,8.01
2022-12-09T08:43:25.814Z,8.31
2022-12-09T08:45:52.628Z,8.40
2022-12-09T08:48:19.244Z,8.46
2022-12-09T08:50:46.080Z,8.42
2022-12-09T08:53:12.722Z,8.45
2022-12-09T08:55:40.201Z,8.32
2022-12-09T08:58:07.074Z,8.48
2022-12-09T09:00:33.762Z,8.05
2022-12-09T09:03:00.799Z,8.40
2022-12-09T09:05:28.032Z,8.18
2022-12-09T09:07:55.092Z,8.28
2022-12-09T09:10:21.966Z,8.02
2022-12-09T09:12:49.290Z,8.12
2022-12-09T09:15:16.148Z,7.93
2022-12-09T09:17:48.113Z,8.06
2022-12-09T09:20:18.509Z,7.90
2022-12-09T09:22:46.321Z,7.79
2022-12-09T09:25:14.451Z,8.02
2022-12-09T09:27:41.518Z,7.83
2022-12-09T09:30:10.309Z,7.39
2022-12-09T09:32:38.925Z,7.78
2022-12-09T09:35:06.554Z,7.99
2022-12-09T09:37:34.968Z,8.15
2022-12-09T09:40:04.038Z,8.07
2022-12-09T09:42:37.813Z,8.17
2022-12-09T09:45:06.840Z,8.29
2022-12-09T09:47:38.811Z,8.24
2022-12-09T09:50:07.292Z,8.44
2022-12-09T09:52:39.481Z,8.31
2022-12-09T09:55:14.611Z,8.07
2022-12-09T09:57:50.499Z,8.49
2022-12-09T10:00:32.815Z,8.63
2022-12-09T10:03:23.272Z,8.52
2022-12-09T10:05:53.777Z,8.61
2022-12-09T10:08:46.785Z,8.68
2022-12-09T10:11:20.143Z,8.70
2022-12-09T10:13:53.785Z,8.31
2022-12-09T10:16:23.997Z,8.65
2022-12-09T10:18:58.639Z,8.36
2022-12-09T10:21:31.491Z,8.55
2022-12-09T10:24:03.223Z,8.99
2022-12-09T10:26:31.344Z,8.60
2022-12-09T10:29:06.383Z,8.61
2022-12-09T10:31:33.624Z,8.56
2022-12-09T10:34:01.010Z,8.39
2022-12-09T10:36:35.199Z,8.60
2022-12-09T10:39:03.233Z,7.89
2022-12-09T10:41:54.717Z,8.28
2022-12-09T10:44:23.156Z,9.01
2022-12-09T10:46:56.728Z,8.81
2022-12-09T10:49:25.295Z,8.20
2022-12-09T10:51:53.125Z,8.19
2022-12-09T10:54:25.722Z,8.78
2022-12-09T10:57:05.055Z,8.56
2022-12-09T10:59:32.260Z,8.79
2022-12-09T11:02:02.727Z,9.02
2022-12-09T11:04:34.958Z,8.66
2022-12-09T11:07:22.897Z,8.08
2022-12-09T11:09:59.001Z,8.52
2022-12-09T11:12:36.669Z,8.87
2022-12-09T11:15:22.007Z,8.41
2022-12-09T11:18:04.517Z,8.76
2022-12-09T11:20:32.846Z,8.66
2022-12-09T11:23:00.003Z,8.77
2022-12-09T11:25:31.815Z,8.81
2022-12-09T11:28:02.038Z,8.53
2022-12-09T11:30:36.620Z,8.84
2022-12-09T11:33:07.802Z,8.67
2022-12-09T11:35:34.935Z,8.84
2022-12-09T11:38:24.996Z,8.79
2022-12-09T11:41:09.703Z,9.10
2022-12-09T11:43:47.485Z,9.36
2022-12-09T11:46:14.078Z,8.98
2022-12-09T11:48:43.979Z,9.59
2022-12-09T11:51:20.081Z,8.54
2022-12-09T11:53:46.533Z,8.94
2022-12-09T11:56:17.326Z,8.57
2022-12-09T11:59:06.583Z,9.28
2022-12-09T12:01:43.278Z,9.18
2022-12-09T12:04:11.336Z,8.78
2022-12-09T12:06:43.699Z,8.90
2022-12-09T12:09:13.317Z,9.10
2022-12-09T12:11:48.269Z,8.93
2022-12-09T12:14:24.399Z,9.10
2022-12-09T12:17:00.247Z,8.33
2022-12-09T12:19:40.280Z,9.17
2022-12-09T12:22:06.887Z,9.15
2022-12-09T12:24:52.353Z,9.27
2022-12-09T12:27:39.335Z,9.34
2022-12-09T12:30:10.216Z,8.93
2022-12-09T12:32:52.249Z,8.99
2022-12-09T12:35:42.884Z,8.63
2022-12-09T12:38:19.775Z,9.11
2022-12-09T12:40:54.942Z,8.87
2022-12-09T12:43:39.778Z,8.94
2022-12-09T12:46:18.374Z,9.05
2022-12-09T12:48:44.758Z,9.14
2022-12-09T12:51:11.248Z,9.22
2022-12-09T12:53:43.989Z,9.24
2022-12-09T12:56:30.749Z,9.29
2022-12-09T12:59:00.392Z,9.25
2022-12-09T13:01:31.403Z,9.21
2022-12-09T13:04:07.472Z,9.46
2022-12-09T13:06:46.299Z,9.16
2022-12-09T13:09:16.775Z,9.01
2022-12-09T13:11:54.316Z,8.96
2022-12-09T13:14:23.346Z,8.94
2022-12-09T13:16:51.339Z,9.09
2022-12-09T13:19:23.734Z,9.29
2022-12-09T13:21:50.767Z,9.34
2022-12-09T13:24:21.628Z,9.25
2022-12-09T13:26:57.297Z,9.11
2022-12-09T13:29:42.534Z,8.87
2022-12-09T13:32:17.240Z,8.95
2022-12-09T13:34:49.007Z,8.79
2022-12-09T13:37:35.832Z,8.86
2022-12-09T13:40:23.669Z,8.97
2022-12-09T13:42:54.178Z,9.22
2022-12-09T13:45:23.840Z,9.17
2022-12-09T13:47:51.250Z,9.01
2022-12-09T13:50:27.775Z,8.75
2022-12-09T13:52:59.973Z,8.68
2022-12-09T13:55:32.368Z,8.82
2022-12-09T13:58:10.020Z,8.79
2022-12-09T14:00:37.442Z,8.53
2022-12-09T14:03:20.572Z,8.61
2022-12-09T14:05:48.014Z,8.49
2022-12-09T14:08:24.616Z,8.60
2022-12-09T14:10:53.266Z,8.50
2022-12-09T14:13:25.850Z,8.53
2022-12-09T14:16:10.500Z,8.54
2022-12-09T14:18:39.894Z,8.60
2022-12-09T14:21:19.209Z,8.59
2022-12-09T14:24:04.370Z,8.43
2022-12-09T14:26:39.976Z,8.27
2022-12-09T14:29:06.324Z,8.26
2022-12-09T14:31:45.216Z,8.32
2022-12-09T14:34:25.625Z,8.19
2022-12-09T14:36:56.399Z,8.22
2022-12-09T14:39:28.901Z,8.19
2022-12-09T14:42:05.789Z,8.24
2022-12-09T14:44:35.499Z,8.31
2022-12-09T14:47:17.324Z,8.23
2022-12-09T14:49:49.179Z,8.04
2022-12-09T14:52:22.064Z,7.89
2022-12-09T14:54:49.565Z,7.78
2022-12-09T14:57:20.394Z,7.74
2022-12-09T14:59:49.309Z,7.79
2022-12-09T15:02:20.529Z,7.65
2022-12-09T15:04:47.986Z,7.60
2022-12-09T15:07:14.695Z,7.61
2022-12-09T15:09:48.336Z,7.60
2022-12-09T15:12:14.897Z,7.44
2022-12-09T15:14:44.328Z,7.46
2022-12-09T15:17:18.969Z,7.49
2022-12-09T15:20:00.271Z,7.28
2022-12-09T15:22:29.374Z,7.48
2022-12-09T15:24:56.006Z,7.39
2022-12-09T15:27:23.938Z,7.45
2022-12-09T15:29:52.934Z,7.32
2022-12-09T15:32:27.040Z,7.44
2022-12-09T15:34:54.850Z,7.49
2022-12-09T15:37:30.728Z,7.45
2022-12-09T15:40:03.612Z,7.27
2022-12-09T15:42:33.260Z,7.38
2022-12-09T15:45:13.827Z,7.65
2022-12-09T15:48:03.762Z,7.58
2022-12-09T15:50:35.262Z,7.56
2022-12-09T15:53:04.693Z,7.71
2022-12-09T15:55:31.451Z,7.66
2022-12-09T15:58:02.882Z,7.59
2022-12-09T16:00:29.662Z,7.56
2022-12-09T16:02:56.588Z,7.61
2022-12-09T16:05:25.366Z,7.55
2022-12-09T16:07:55.823Z,7.66
2022-12-09T16:10:28.819Z,7.42
2022-12-09T16:13:25.437Z,7.49
2022-12-09T16:15:55.750Z,7.40
2022-12-09T16:18:26.801Z,7.48
2022-12-09T16:21:11.992Z,7.52
2022-12-09T16:23:38.604Z,7.40
2022-12-09T16:26:07.598Z,7.33
2022-12-09T16:28:34.944Z,7.23
2022-12-09T16:31:03.272Z,7.21
2022-12-09T16:33:34.894Z,7.14
2022-12-09T16:36:03.475Z,7.17
2022-12-09T16:38:32.461Z,7.13
2022-12-09T16:41:00.480Z,7.21
2022-12-09T16:43:27.851Z,6.95
2022-12-09T16:45:57.195Z,6.85
2022-12-09T16:48:25.090Z,6.81
2022-12-09T16:50:51.820Z,6.70
2022-12-09T16:53:19.968Z,6.83
2022-12-09T16:55:54.171Z,6.78
2022-12-09T16:58:21.194Z,6.64
2022-12-09T17:00:48.029Z,6.77
2022-12-09T17:03:19.092Z,6.70
2022-12-09T17:05:48.742Z,6.57
2022-12-09T17:08:16.666Z,6.60
2022-12-09T17:10:44.419Z,6.35
2022-12-09T17:13:11.971Z,6.34
2022-12-09T17:15:40.376Z,6.47
2022-12-09T17:18:06.985Z,6.47
2022-12-09T17:20:33.510Z,6.43
2022-12-09T17:23:00.346Z,6.40
2022-12-09T17:25:29.685Z,6.32
2022-12-09T17:27:56.413Z,6.40
2022-12-09T17:30:23.367Z,6.26
2022-12-09T17:32:50.086Z,6.38
2022-12-09T17:35:16.861Z,6.33
2022-12-09T17:37:43.642Z,6.50
2022-12-09T17:40:10.582Z,6.41
2022-12-09T17:42:38.601Z,6.34
2022-12-09T17:45:05.511Z,6.17
2022-12-09T17:47:48.174Z,6.11
2022-12-09T17:50:14.584Z,6.10
2022-12-09T17:52:42.161Z,6.00
2022-12-09T17:55:09.333Z,6.19
2022-12-09T17:57:36.210Z,6.08
2022-12-09T18:00:04.838Z,6.02
2022-12-09T18:02:31.362Z,6.01
2022-12-09T18:04:59.191Z,6.11
2022-12-09T18:07:25.659Z,6.13
2022-12-09T18:09:54.671Z,6.07
2022-12-09T18:12:21.659Z,5.98
2022-12-09T18:14:48.169Z,5.87
2022-12-09T18:17:14.725Z,5.92
2022-12-09T18:19:41.161Z,5.92
2022-12-09T18:22:07.810Z,5.91
2022-12-09T18:24:34.550Z,5.91
2022-12-09T18:27:01.092Z,5.80
2022-12-09T18:29:27.653Z,5.88
2022-12-09T18:31:57.188Z,5.91
2022-12-09T18:34:25.797Z,5.93
2022-12-09T18:36:52.300Z,5.96
2022-12-09T18:39:18.865Z,5.69
2022-12-09T18:41:48.189Z,5.71
2022-12-09T18:44:16.151Z,5.70
2022-12-09T18:46:47.148Z,5.68
2022-12-09T18:49:28.260Z,5.84
2022-12-09T18:51:55.658Z,5.76
2022-12-09T18:54:24.454Z,5.66
2022-12-09T18:56:54.043Z,5.83
2022-12-09T18:59:22.039Z,5.92
2022-12-09T19:01:53.384Z,5.51
2022-12-09T19:04:21.839Z,5.46
2022-12-09T19:06:49.145Z,5.42
2022-12-09T19:09:16.917Z,5.67
2022-12-09T19:11:44.304Z,5.67
2022-12-09T19:14:11.168Z,5.49
2022-12-09T19:16:38.935Z,5.62
2022-12-09T19:19:09.507Z,5.23
2022-12-09T19:21:36.943Z,5.27
2022-12-09T19:24:03.562Z,5.18
2022-12-09T19:26:31.659Z,5.23
2022-12-09T19:29:02.239Z,5.26
2022-12-09T19:31:33.474Z,5.32
2022-12-09T19:34:01.414Z,5.31
2022-12-09T19:36:28.527Z,5.32
2022-12-09T19:39:01.263Z,5.29
2022-12-09T19:41:27.729Z,5.35
2022-12-09T19:43:55.114Z,5.09
2022-12-09T19:46:21.882Z,4.98
2022-12-09T19:48:48.241Z,5.02
2022-12-09T19:51:16.468Z,5.12
2022-12-09T19:53:43.650Z,4.87
2022-12-09T19:56:20.309Z,4.94
2022-12-09T19:58:47.257Z,5.07
2022-12-09T20:01:18.036Z,5.09
2022-12-09T20:03:45.454Z,4.84
2022-12-09T20:06:13.569Z,4.89
2022-12-09T20:08:40.365Z,5.09
2022-12-09T20:11:11.203Z,5.09
2022-12-09T20:13:38.201Z,5.20
2022-12-09T20:16:08.921Z,5.09
2022-12-09T20:18:36.016Z,5.31
2022-12-09T20:21:03.198Z,5.41
2022-12-09T20:23:29.842Z,4.72
2022-12-09T20:26:06.096Z,4.74
2022-12-09T20:28:33.476Z,4.79
2022-12-09T20:31:07.735Z,4.82
2022-12-09T20:33:47.024Z,4.93
2022-12-09T20:36:16.083Z,5.36
2022-12-09T20:38:44.145Z,5.25
2022-12-09T20:41:14.327Z,5.35
2022-12-09T20:43:43.387Z,5.52
2022-12-09T20:46:15.711Z,5.93
2022-12-09T20:48:42.762Z,5.67
2022-12-09T20:51:12.159Z,5.58
2022-12-09T20:53:41.835Z,5.66
2022-12-09T20:56:08.774Z,5.75
2022-12-09T20:58:36.195Z,5.27
2022-12-09T21:01:14.201Z,5.64
2022-12-09T21:03:41.389Z,5.57
2022-12-09T21:06:08.868Z,5.54
2022-12-09T21:08:35.857Z,5.35
2022-12-09T21:11:06.423Z,5.71
2022-12-09T21:13:36.377Z,5.93
2022-12-09T21:16:04.382Z,5.81
2022-12-09T21:18:31.512Z,5.76
2022-12-09T21:20:58.411Z,5.22
2022-12-09T21:23:33.892Z,5.99
2022-12-09T21:26:05.519Z,6.04
2022-12-09T21:28:35.796Z,6.21
2022-12-09T21:31:08.863Z,6.22
2022-12-09T21:33:35.862Z,6.20
2022-12-09T21:36:05.855Z,5.98
2022-12-09T21:38:33.568Z,5.96
2022-12-09T21:41:05.122Z,5.70
2022-12-09T21:43:36.447Z,5.90
2022-12-09T21:46:07.106Z,5.97
2022-12-09T21:48:34.209Z,5.86
2022-12-09T21:51:02.151Z,6.07
2022-12-09T21:53:29.563Z,6.30
2022-12-09T21:56:01.360Z,6.33
2022-12-09T21:58:29.624Z,6.52
2022-12-09T22:00:57.501Z,6.62
2022-12-09T22:03:24.412Z,5.97
2022-12-09T22:05:56.644Z,6.38
2022-12-09T22:08:25.065Z,6.33
2022-12-09T22:10:51.866Z,6.16
2022-12-09T22:13:18.340Z,6.13
2022-12-09T22:15:44.984Z,6.18
2022-12-09T22:18:11.604Z,6.38
2022-12-09T22:21:16.130Z,6.43
2022-12-09T22:23:24.910Z,6.43
2022-12-09T22:25:51.649Z,6.42
2022-12-09T22:28:18.366Z,6.17
2022-12-09T22:30:46.296Z,6.28
2022-12-09T22:33:14.345Z,6.40
2022-12-09T22:35:40.891Z,6.43
2022-12-09T22:38:14.088Z,6.22
2022-12-09T22:40:42.082Z,6.36
2022-12-09T22:43:09.161Z,6.38
2022-12-09T22:45:36.458Z,6.56
2022-12-09T22:48:03.954Z,6.49
2022-12-09T22:50:31.337Z,6.26
2022-12-09T22:52:57.934Z,6.22
2022-12-09T22:55:24.827Z,6.57
2022-12-09T22:57:51.899Z,6.44
2022-12-09T23:00:18.814Z,6.55
2022-12-09T23:02:46.016Z,6.76
2022-12-09T23:05:12.873Z,6.47
2022-12-09T23:07:39.518Z,6.58
2022-12-09T23:10:07.141Z,6.55
2022-12-09T23:12:33.956Z,6.50
2022-12-09T23:15:00.403Z,6.44
2022-12-09T23:17:27.003Z,6.82
2022-12-09T23:19:53.452Z,6.65
2022-12-09T23:22:20.010Z,6.26
2022-12-09T23:24:47.918Z,6.38
2022-12-09T23:27:14.300Z,6.37
2022-12-09T23:29:41.875Z,6.45
2022-12-09T23:32:08.195Z,6.62
2022-12-09T23:34:34.985Z,6.68
2022-12-09T23:37:01.595Z,6.68
2022-12-09T23:39:28.306Z,6.69
2022-12-09T23:41:55.054Z,6.60
2022-12-09T23:44:21.869Z,6.64
2022-12-09T23:46:48.910Z,6.50
2022-12-09T23:49:15.948Z,6.52
2022-12-09T23:51:44.003Z,6.65
2022-12-09T23:54:11.796Z,6.85
2022-12-09T23:56:39.928Z,6.79
2022-12-09T23:59:08.620Z,6.80
